Stockton Metropolitan Airport
KSCK : now visible

Airfield :











YOU CAN JOIN US ON...

 
LOGIN :

Register | Disclaimer

   EN    FR    IT 

 









Legend :    VFR   Marginal VFR   IFR   Intensive IFR   Very Intensive IFR
Visi :
Ceiling :
>= 8 km
>= 3000ft
5 to 8 km
1000 to 3000 ft
1500m to 5 km
500 to 1000 ft
800 to 1500m
200 to 500 ft
< 800m
< 200 ft
Symbols :   Thunderstorms  Fog  Heavy snow  Heavy precipitations  Wind > 20 kt






- Airport Elevation : 33 ft


KSCK - Stockton Metropolitan

CURRENT METAR :
  • 051932Z 14010KT 10SM FEW042 16/11 A3010 RMK AO2 T01560111

EXPIRED METARs :
  • 051855Z 12008KT 6SM HZ SCT014 15/11 A3011 RMK AO2 SLP195 T01500111
  • 051848Z 12007KT 6SM BR SCT014 13/11 A3011 RMK AO2 T01330111
  • 051816Z 00000KT 1 1/2SM BR BKN002 12/11 A3011 RMK AO2 T01220111
  • 051805Z 00000KT 3/4SM R29R/4000VP6000FT BR OVC002 12/11 A3011 RMK AO2 T01170111
  • 051749Z 11004KT 1/4SM R29R/1200V2000FT FG VV002 12/11 A3011 RMK AO2
  • 051714Z 12003KT 1SM R29R/P6000FT BR OVC004 11/10 A3011 RMK AO2 T01110100
  • 051655Z 09003KT 3/4SM R29R/2200VP6000FT BR OVC002 11/10 A3010 RMK AO2 SLP192 T01110100

TAF KSCK
Valid from the 05 at 18:00 until the 06 at 18:00 UTC


051725Z 0518/0618 14006KT 4SM BR OVC015
TEMPO 0518/0519 1SM BR OVC005
FM052200 13004KT P6SM OVC035
FM060900 12004KT 5SM BR OVC050



MET'MAP, your aeronautical weather chart ! - Copyright ORBIFLY December 2007 - Disclaimer

ORBIFLY MET'MAP TEAM :

Programming & Development : Alexandra Zaïnal
Concept & original design : Baudouin d'Aumeries
Assistance for programming : Marc-Olivier Méhu
Technical & hardware support : Manuel Goepfert

Contact : metmap@orbifly.com




SOURCES & CREDITS :

   NOAA       Earth
Advisory